createdAt,value
2022-08-20T00:08:06.276Z,10.68
2022-08-20T00:16:20.249Z,14.65
2022-08-20T00:18:51.310Z,13.85
2022-08-20T00:21:23.610Z,14.13
2022-08-20T00:23:58.144Z,13.55
2022-08-20T00:32:01.023Z,13.48
2022-08-20T00:34:32.312Z,12.73
2022-08-20T00:39:48.611Z,18.10
2022-08-20T00:42:19.221Z,9.25
2022-08-20T00:44:50.515Z,13.25
2022-08-20T00:47:22.549Z,12.65
2022-08-20T00:49:52.928Z,10.93
2022-08-20T00:52:24.337Z,8.57
2022-08-20T00:55:00.810Z,8.38
2022-08-20T00:57:43.489Z,8.30
2022-08-20T01:00:34.887Z,12.38
2022-08-20T01:05:53.666Z,7.28
2022-08-20T01:08:28.676Z,7.07
2022-08-20T01:11:12.739Z,8.10
2022-08-20T01:13:48.746Z,6.20
2022-08-20T01:19:29.703Z,6.05
2022-08-20T01:30:22.122Z,11.35
2022-08-20T01:32:52.423Z,8.75
2022-08-20T01:35:26.212Z,10.70
2022-08-20T01:37:57.133Z,8.07
2022-08-20T01:46:20.736Z,10.75
2022-08-20T01:48:52.213Z,10.93
2022-08-20T01:51:28.871Z,11.00
2022-08-20T01:54:01.927Z,7.97
2022-08-20T01:56:36.729Z,8.57
2022-08-20T01:59:09.235Z,8.80
2022-08-20T02:04:29.102Z,5.78
2022-08-20T02:12:20.222Z,9.02
2022-08-20T02:17:43.966Z,8.15
2022-08-20T02:20:30.683Z,13.00
2022-08-20T02:25:51.237Z,16.85
2022-08-20T02:28:23.060Z,11.18
2022-08-20T02:33:43.545Z,10.35
2022-08-20T02:36:34.724Z,9.13
2022-08-20T02:39:08.519Z,12.77
2022-08-20T02:41:40.566Z,11.82
2022-08-20T02:44:12.267Z,8.68
2022-08-20T02:46:42.572Z,12.13
2022-08-20T02:49:12.963Z,14.70
2022-08-20T02:51:43.273Z,11.10
2022-08-20T02:54:14.744Z,11.20
2022-08-20T02:56:45.760Z,12.27
2022-08-20T02:59:19.940Z,12.73
2022-08-20T03:01:55.849Z,22.38
2022-08-20T03:07:18.163Z,10.07
2022-08-20T03:09:48.613Z,14.85
2022-08-20T03:12:19.000Z,11.60
2022-08-20T03:14:49.433Z,15.60
2022-08-20T03:20:09.859Z,16.98
2022-08-20T03:22:40.226Z,18.88
2022-08-20T03:27:58.318Z,26.35
2022-08-20T03:30:30.535Z,24.35
2022-08-20T03:33:01.557Z,28.30
2022-08-20T03:35:33.879Z,21.50
2022-08-20T03:38:09.258Z,31.67
2022-08-20T03:40:41.048Z,31.50
2022-08-20T03:43:12.332Z,22.35
2022-08-20T03:45:46.129Z,17.35
2022-08-20T03:48:20.176Z,17.17
2022-08-20T03:50:53.163Z,16.05
2022-08-20T03:53:23.575Z,15.68
2022-08-20T03:56:02.111Z,18.58
2022-08-20T03:58:35.130Z,21.00
2022-08-20T04:01:44.446Z,17.65
2022-08-20T04:04:00.743Z,23.95
2022-08-20T04:06:32.946Z,23.63
2022-08-20T04:09:03.321Z,20.83
2022-08-20T04:11:35.650Z,25.27
2022-08-20T04:14:06.026Z,21.35
2022-08-20T04:16:36.437Z,20.95
2022-08-20T04:21:54.999Z,19.42
2022-08-20T04:27:14.530Z,24.88
2022-08-20T04:29:46.743Z,26.63
2022-08-20T04:32:17.272Z,18.42
2022-08-20T04:34:48.750Z,19.23
2022-08-20T04:40:25.469Z,24.67
2022-08-20T04:42:56.682Z,21.08
2022-08-20T04:48:15.346Z,17.50
2022-08-20T04:50:49.082Z,18.80
2022-08-20T04:53:25.680Z,23.35
2022-08-20T04:55:57.899Z,21.60
2022-08-20T05:01:20.836Z,19.70
2022-08-20T05:03:51.311Z,23.92
2022-08-20T05:06:21.812Z,18.52
2022-08-20T05:08:52.388Z,18.23
2022-08-20T05:11:32.836Z,18.27
2022-08-20T05:14:08.947Z,22.25
2022-08-20T05:16:42.597Z,17.23
2022-08-20T05:19:16.481Z,19.88
2022-08-20T05:21:48.672Z,25.35
2022-08-20T05:24:19.095Z,26.70
2022-08-20T05:26:49.922Z,27.65
2022-08-20T05:29:21.657Z,19.77
2022-08-20T05:34:39.744Z,16.45
2022-08-20T05:37:10.448Z,13.20
2022-08-20T05:42:31.153Z,7.57
2022-08-20T05:45:01.599Z,13.20
2022-08-20T05:47:32.645Z,9.45
2022-08-20T05:50:10.112Z,11.25
2022-08-20T05:55:37.820Z,4.85
2022-08-20T05:58:11.442Z,6.82
2022-08-20T06:03:44.575Z,4.03
2022-08-20T06:06:19.972Z,6.75
2022-08-20T06:09:05.522Z,3.10
2022-08-20T06:11:37.407Z,4.32
2022-08-20T06:16:57.772Z,5.40
2022-08-20T06:22:21.253Z,8.07
2022-08-20T06:24:54.939Z,8.95
2022-08-20T06:27:25.905Z,4.55
2022-08-20T06:29:56.784Z,10.18
2022-08-20T06:32:32.570Z,4.75
2022-08-20T06:35:05.436Z,3.85
2022-08-20T06:37:38.911Z,3.10
2022-08-20T06:40:21.685Z,11.57
2022-08-20T06:42:53.499Z,4.00
2022-08-20T06:51:01.754Z,4.85
2022-08-20T06:53:32.210Z,5.32
2022-08-20T06:56:03.960Z,7.60
2022-08-20T06:58:37.159Z,4.82
2022-08-20T07:01:14.138Z,4.85
2022-08-20T07:03:55.602Z,4.45
2022-08-20T07:06:28.977Z,4.82
2022-08-20T07:08:59.608Z,4.95
2022-08-20T07:11:30.207Z,6.75
2022-08-20T07:14:02.027Z,6.63
2022-08-20T07:16:32.638Z,8.32
2022-08-20T07:19:03.837Z,5.72
2022-08-20T07:21:34.715Z,5.32
2022-08-20T07:24:06.078Z,6.32
2022-08-20T07:42:06.125Z,6.05
2022-08-20T07:44:36.597Z,7.40
2022-08-20T07:47:08.701Z,5.50
2022-08-20T07:52:29.271Z,4.35
2022-08-20T07:54:59.816Z,6.85
2022-08-20T08:00:18.729Z,8.30
2022-08-20T08:02:49.406Z,9.43
2022-08-20T08:05:20.456Z,5.47
2022-08-20T08:07:51.040Z,9.77
2022-08-20T08:10:24.677Z,7.43
2022-08-20T08:13:02.523Z,4.43
2022-08-20T08:15:36.748Z,5.30
2022-08-20T08:23:46.915Z,5.45
2022-08-20T08:26:19.388Z,9.63
2022-08-20T08:31:37.256Z,6.47
2022-08-20T08:34:12.832Z,6.50
2022-08-20T08:39:35.210Z,4.72
2022-08-20T08:42:19.227Z,6.47
2022-08-20T08:44:50.478Z,5.18
2022-08-20T08:47:29.643Z,3.58
2022-08-20T08:50:00.911Z,7.13
2022-08-20T08:58:17.044Z,6.15
2022-08-20T09:00:56.039Z,5.88
2022-08-20T09:03:36.032Z,4.40
2022-08-20T09:06:07.243Z,6.55
2022-08-20T09:08:46.990Z,8.73
2022-08-20T09:11:18.446Z,12.10
2022-08-20T09:13:48.830Z,5.82
2022-08-20T09:16:19.302Z,7.43
2022-08-20T09:18:49.848Z,5.22
2022-08-20T09:21:20.838Z,5.85
2022-08-20T09:23:51.162Z,8.50
2022-08-20T09:26:21.631Z,8.45
2022-08-20T09:28:55.846Z,5.40
2022-08-20T09:31:26.552Z,6.68
2022-08-20T09:33:57.196Z,8.32
2022-08-20T09:36:32.001Z,10.75
2022-08-20T09:39:03.829Z,4.32
2022-08-20T09:41:36.045Z,4.35
2022-08-20T09:44:06.974Z,7.13
2022-08-20T09:46:37.706Z,7.22
2022-08-20T09:49:10.858Z,10.90
2022-08-20T09:51:41.437Z,6.53
2022-08-20T09:54:12.012Z,37.75
2022-08-20T09:56:42.304Z,8.73
2022-08-20T09:59:12.969Z,4.47
2022-08-20T10:01:43.466Z,6.63
2022-08-20T10:04:14.002Z,7.18
2022-08-20T10:06:45.044Z,5.93
2022-08-20T10:09:15.485Z,6.05
2022-08-20T10:11:45.878Z,6.28
2022-08-20T10:14:19.260Z,7.78
2022-08-20T10:16:49.808Z,7.22
2022-08-20T10:19:23.485Z,7.35
2022-08-20T10:21:56.309Z,8.05
2022-08-20T10:24:27.073Z,8.93
2022-08-20T10:27:00.969Z,8.90
2022-08-20T10:29:32.672Z,7.82
2022-08-20T10:32:15.358Z,9.95
2022-08-20T10:34:51.427Z,6.35
2022-08-20T10:37:25.483Z,5.97
2022-08-20T10:40:02.113Z,6.00
2022-08-20T10:42:32.545Z,11.63
2022-08-20T10:45:03.004Z,6.38
2022-08-20T10:47:35.375Z,7.22
2022-08-20T10:50:09.109Z,10.70
2022-08-20T10:52:39.539Z,8.50
2022-08-20T10:55:10.931Z,5.90
2022-08-20T10:57:43.667Z,9.95
2022-08-20T11:00:18.962Z,7.03
2022-08-20T11:02:49.695Z,6.07
2022-08-20T11:05:20.070Z,8.73
2022-08-20T11:07:56.530Z,9.30
2022-08-20T11:10:31.197Z,8.70
2022-08-20T11:13:01.697Z,24.42
2022-08-20T11:15:32.340Z,5.95
2022-08-20T11:18:04.626Z,6.60
2022-08-20T11:20:35.458Z,7.18
2022-08-20T11:23:06.240Z,8.15
2022-08-20T11:25:39.367Z,6.50
2022-08-20T11:28:10.235Z,7.63
2022-08-20T11:30:40.977Z,8.15
2022-08-20T11:33:11.388Z,4.43
2022-08-20T11:35:48.707Z,8.05
2022-08-20T11:38:21.719Z,10.65
2022-08-20T11:40:52.059Z,16.48
2022-08-20T11:43:22.632Z,5.60
2022-08-20T11:45:57.784Z,8.60
2022-08-20T11:48:28.149Z,7.50
2022-08-20T11:50:58.522Z,8.82
2022-08-20T11:53:29.010Z,12.57
2022-08-20T11:56:02.260Z,8.25
2022-08-20T11:58:37.902Z,6.82
2022-08-20T12:01:08.345Z,10.40
2022-08-20T12:03:39.168Z,9.20
2022-08-20T12:06:09.792Z,6.00
2022-08-20T12:08:41.229Z,7.30
2022-08-20T12:11:11.645Z,7.57
2022-08-20T12:13:47.923Z,6.07
2022-08-20T12:16:21.299Z,5.78
2022-08-20T12:21:37.672Z,10.30
2022-08-20T12:24:08.406Z,11.07
2022-08-20T12:26:38.713Z,9.63
2022-08-20T12:29:09.987Z,9.48
2022-08-20T12:37:18.084Z,8.57
2022-08-20T12:42:38.477Z,8.68
2022-08-20T12:45:10.429Z,8.07
2022-08-20T12:47:45.051Z,7.00
2022-08-20T12:50:19.008Z,6.55
2022-08-20T12:52:50.432Z,8.32
2022-08-20T12:55:22.663Z,5.20
2022-08-20T12:57:56.330Z,9.73
2022-08-20T13:00:31.193Z,9.45
2022-08-20T13:03:04.716Z,6.95
2022-08-20T13:08:22.055Z,9.35
2022-08-20T13:10:53.316Z,9.20
2022-08-20T13:13:23.655Z,5.30
2022-08-20T13:15:54.393Z,7.97
2022-08-20T13:18:24.731Z,7.20
2022-08-20T13:20:55.116Z,7.05
2022-08-20T13:23:25.385Z,5.80
2022-08-20T13:28:41.592Z,8.48
2022-08-20T13:31:11.955Z,5.22
2022-08-20T13:36:31.276Z,9.43
2022-08-20T13:41:47.549Z,7.90
2022-08-20T13:44:18.081Z,11.82
2022-08-20T13:46:50.653Z,7.88
2022-08-20T13:49:21.677Z,8.60
2022-08-20T13:51:52.346Z,11.85
2022-08-20T13:57:20.392Z,9.75
2022-08-20T13:59:53.403Z,8.32
2022-08-20T14:02:24.238Z,13.02
2022-08-20T14:04:55.874Z,13.25
2022-08-20T14:07:32.586Z,15.88
2022-08-20T14:10:09.247Z,15.00
2022-08-20T14:12:39.697Z,7.07
2022-08-20T14:15:15.458Z,16.52
2022-08-20T14:17:56.283Z,13.10
2022-08-20T14:20:32.145Z,7.30
2022-08-20T14:23:03.780Z,15.63
2022-08-20T14:33:44.876Z,9.45
2022-08-20T14:36:15.558Z,9.07
2022-08-20T14:38:47.782Z,14.30
2022-08-20T14:41:18.391Z,13.23
2022-08-20T14:43:48.833Z,17.98
2022-08-20T14:46:19.293Z,14.27
2022-08-20T14:48:53.454Z,11.25
2022-08-20T14:51:24.511Z,13.13
2022-08-20T14:53:54.947Z,14.18
2022-08-20T14:56:25.409Z,12.55
2022-08-20T14:58:56.077Z,13.15
2022-08-20T15:01:26.489Z,16.85
2022-08-20T15:03:56.974Z,6.47
2022-08-20T15:06:27.361Z,10.52
2022-08-20T15:08:58.747Z,12.15
2022-08-20T15:11:33.616Z,13.30
2022-08-20T15:16:51.469Z,5.97
2022-08-20T15:19:22.703Z,10.25
2022-08-20T15:21:53.394Z,12.68
2022-08-20T15:24:24.082Z,7.90
2022-08-20T15:26:54.482Z,10.20
2022-08-20T15:29:24.983Z,13.38
2022-08-20T15:34:43.970Z,11.50
2022-08-20T15:37:24.404Z,14.07
2022-08-20T15:39:55.749Z,10.15
2022-08-20T15:42:26.442Z,10.25
2022-08-20T15:44:56.923Z,7.18
2022-08-20T15:47:31.208Z,13.23
2022-08-20T15:50:27.959Z,10.60
2022-08-20T15:53:04.636Z,12.88
2022-08-20T15:55:36.620Z,8.38
2022-08-20T15:58:27.166Z,7.18
2022-08-20T16:01:24.585Z,7.78
2022-08-20T16:07:37.451Z,8.88
2022-08-20T16:10:34.904Z,5.05
2022-08-20T16:16:02.369Z,8.02
2022-08-20T16:18:38.439Z,3.65
2022-08-20T16:21:16.420Z,7.43
2022-08-20T16:23:48.670Z,8.38
2022-08-20T16:30:03.148Z,10.05
2022-08-20T16:32:43.844Z,9.27
2022-08-20T16:35:34.302Z,11.82
2022-08-20T16:41:30.061Z,9.88
2022-08-20T16:44:09.238Z,8.05
2022-08-20T16:52:21.095Z,7.72
2022-08-20T16:54:51.639Z,3.97
2022-08-20T16:57:22.493Z,8.00
2022-08-20T17:00:17.895Z,6.93
2022-08-20T17:03:01.956Z,4.80
2022-08-20T17:05:49.683Z,7.90
2022-08-20T17:08:38.630Z,5.93
2022-08-20T17:11:15.485Z,6.78
2022-08-20T17:22:23.004Z,7.60
2022-08-20T17:24:53.975Z,9.35
2022-08-20T17:27:42.432Z,9.32
2022-08-20T17:30:24.229Z,4.72
2022-08-20T17:33:01.558Z,17.25
2022-08-20T17:35:48.797Z,7.30
2022-08-20T17:38:50.942Z,11.70
2022-08-20T17:41:33.762Z,8.88
2022-08-20T17:44:10.815Z,12.57
2022-08-20T17:46:46.947Z,12.77
2022-08-20T17:49:23.085Z,10.85
2022-08-20T17:51:57.265Z,5.95
2022-08-20T17:54:37.178Z,12.45
2022-08-20T17:57:18.390Z,7.70
2022-08-20T18:00:01.260Z,13.00
2022-08-20T18:05:24.389Z,7.93
2022-08-20T18:08:12.369Z,9.65
2022-08-20T18:10:55.298Z,6.38
2022-08-20T18:13:44.830Z,8.77
2022-08-20T18:16:32.787Z,5.53
2022-08-20T18:19:17.646Z,8.85
2022-08-20T18:22:15.326Z,11.20
2022-08-20T18:25:16.743Z,9.07
2022-08-20T18:27:51.987Z,12.65
2022-08-20T18:30:25.099Z,11.07
2022-08-20T18:33:07.172Z,10.05
2022-08-20T18:35:45.647Z,9.93
2022-08-20T18:38:31.814Z,15.20
2022-08-20T18:41:16.371Z,8.77
2022-08-20T18:43:47.865Z,14.10
2022-08-20T18:46:25.338Z,9.27
2022-08-20T18:48:59.108Z,9.70
2022-08-20T18:51:44.608Z,11.25
2022-08-20T18:54:31.437Z,8.65
2022-08-20T18:57:24.032Z,9.15
2022-08-20T19:00:05.339Z,8.57
2022-08-20T19:02:40.056Z,11.63
2022-08-20T19:05:18.398Z,12.55
2022-08-20T19:07:54.791Z,10.60
2022-08-20T19:10:50.669Z,8.15
2022-08-20T19:13:51.683Z,8.70
2022-08-20T19:16:28.225Z,11.27
2022-08-20T19:18:59.376Z,5.90
2022-08-20T19:21:39.548Z,10.57
2022-08-20T19:24:11.315Z,6.78
2022-08-20T19:26:58.623Z,11.73
2022-08-20T19:29:40.499Z,10.02
2022-08-20T19:32:20.315Z,9.43
2022-08-20T19:34:58.601Z,8.30
2022-08-20T19:37:44.258Z,13.00
2022-08-20T19:40:30.032Z,10.80
2022-08-20T19:43:04.539Z,8.52
2022-08-20T19:45:46.620Z,10.77
2022-08-20T19:48:44.900Z,12.65
2022-08-20T19:51:34.548Z,12.63
2022-08-20T19:54:20.913Z,11.60
2022-08-20T19:56:51.527Z,13.82
2022-08-20T19:59:24.880Z,9.07
2022-08-20T20:02:02.451Z,15.07
2022-08-20T20:04:55.367Z,12.07
2022-08-20T20:07:37.659Z,11.50
2022-08-20T20:10:10.944Z,16.20
2022-08-20T20:12:42.455Z,12.38
2022-08-20T20:15:13.067Z,18.10
2022-08-20T20:17:44.291Z,13.05
2022-08-20T20:20:31.277Z,13.90
2022-08-20T20:23:14.075Z,9.50
2022-08-20T20:25:48.512Z,11.98
2022-08-20T20:28:28.530Z,16.25
2022-08-20T20:31:09.978Z,11.00
2022-08-20T20:33:44.676Z,9.23
2022-08-20T20:36:37.177Z,11.50
2022-08-20T20:39:25.943Z,10.27
2022-08-20T20:41:59.817Z,12.38
2022-08-20T20:44:47.326Z,8.27
2022-08-20T20:47:29.413Z,10.20
2022-08-20T20:50:04.144Z,10.13
2022-08-20T20:52:39.537Z,12.75
2022-08-20T20:55:16.551Z,16.48
2022-08-20T20:57:46.869Z,13.35
2022-08-20T21:00:19.569Z,8.65
2022-08-20T21:08:23.207Z,7.53
2022-08-20T21:10:53.643Z,9.05
2022-08-20T21:13:24.036Z,12.55
2022-08-20T21:18:41.519Z,12.70
2022-08-20T21:21:13.464Z,6.90
2022-08-20T21:23:43.848Z,11.50
2022-08-20T21:26:14.803Z,9.90
2022-08-20T21:31:35.912Z,11.00
2022-08-20T21:34:06.551Z,10.05
2022-08-20T21:36:37.419Z,11.85
2022-08-20T21:39:07.903Z,13.23
2022-08-20T21:41:39.222Z,12.73
2022-08-20T21:44:24.952Z,10.40
2022-08-20T21:49:42.329Z,16.50
2022-08-20T21:52:12.872Z,11.52
2022-08-20T21:57:32.743Z,8.35
2022-08-20T22:00:07.278Z,13.65
2022-08-20T22:05:23.671Z,14.85
2022-08-20T22:07:54.099Z,10.95
2022-08-20T22:10:24.462Z,13.63
2022-08-20T22:15:40.519Z,8.02
2022-08-20T22:20:56.867Z,7.35
2022-08-20T22:26:13.738Z,8.32
2022-08-20T22:28:51.210Z,9.73
2022-08-20T22:34:18.030Z,8.85
2022-08-20T22:36:49.092Z,7.80
2022-08-20T22:39:19.863Z,8.05
2022-08-20T22:41:50.299Z,9.43
2022-08-20T22:44:21.854Z,9.95
2022-08-20T22:46:55.813Z,11.45
2022-08-20T22:49:30.848Z,8.73
2022-08-20T22:54:48.766Z,14.85
2022-08-20T22:57:19.374Z,8.93
2022-08-20T22:59:53.184Z,9.70
2022-08-20T23:10:52.116Z,8.48
2022-08-20T23:13:23.583Z,9.13
2022-08-20T23:18:40.069Z,10.68
2022-08-20T23:21:10.748Z,8.70
2022-08-20T23:23:41.084Z,6.95
2022-08-20T23:26:11.580Z,11.10
2022-08-20T23:28:41.942Z,7.45
2022-08-20T23:31:12.396Z,8.60
2022-08-20T23:33:44.852Z,6.97
2022-08-20T23:36:17.937Z,12.30
2022-08-20T23:38:48.342Z,7.07
2022-08-20T23:41:20.111Z,8.13
2022-08-20T23:43:50.523Z,9.68
2022-08-20T23:46:22.327Z,13.18
2022-08-20T23:48:54.430Z,11.30
2022-08-20T23:51:25.021Z,8.65
2022-08-20T23:53:55.321Z,11.90
2022-08-20T23:56:25.974Z,8.50
2022-08-20T23:58:57.042Z,9.65
